createdAt,value
2023-04-27T00:01:12.225Z,99.90
2023-04-27T00:04:04.527Z,99.90
2023-04-27T00:06:54.455Z,99.90
2023-04-27T00:09:43.497Z,99.90
2023-04-27T00:12:34.028Z,99.90
2023-04-27T00:15:21.426Z,99.90
2023-04-27T00:18:12.266Z,99.90
2023-04-27T00:20:59.972Z,99.90
2023-04-27T00:23:48.716Z,99.90
2023-04-27T00:26:37.682Z,99.90
2023-04-27T00:29:25.450Z,99.90
2023-04-27T00:32:13.479Z,99.90
2023-04-27T00:35:01.311Z,99.90
2023-04-27T00:37:49.372Z,99.90
2023-04-27T00:40:39.965Z,99.90
2023-04-27T00:43:31.845Z,99.90
2023-04-27T00:46:21.666Z,99.90
2023-04-27T00:49:09.768Z,99.90
2023-04-27T00:51:57.482Z,99.90
2023-04-27T00:54:46.267Z,99.90
2023-04-27T00:57:35.061Z,99.90
2023-04-27T01:00:23.937Z,99.90
2023-04-27T01:03:11.639Z,99.90
2023-04-27T01:06:01.901Z,99.90
2023-04-27T01:08:49.448Z,99.90
2023-04-27T01:11:39.218Z,99.90
2023-04-27T01:14:26.963Z,99.90
2023-04-27T01:17:18.464Z,99.90
2023-04-27T01:20:09.653Z,99.90
2023-04-27T01:23:00.000Z,99.90
2023-04-27T01:25:49.371Z,99.90
2023-04-27T01:28:38.612Z,99.90
2023-04-27T01:31:29.332Z,99.90
2023-04-27T01:34:17.147Z,99.90
2023-04-27T01:37:08.173Z,99.90
2023-04-27T01:39:56.795Z,99.90
2023-04-27T01:42:46.255Z,99.90
2023-04-27T01:45:34.044Z,99.90
2023-04-27T01:48:21.864Z,99.90
2023-04-27T01:51:11.127Z,99.90
2023-04-27T01:53:58.560Z,99.90
2023-04-27T01:56:46.293Z,99.90
2023-04-27T01:59:35.278Z,99.90
2023-04-27T02:02:23.021Z,99.90
2023-04-27T02:05:10.698Z,99.90
2023-04-27T02:07:58.657Z,99.90
2023-04-27T02:10:48.972Z,99.90
2023-04-27T02:13:40.663Z,99.90
2023-04-27T02:16:30.291Z,99.90
2023-04-27T02:19:18.327Z,99.90
2023-04-27T02:22:08.080Z,99.90
2023-04-27T02:24:55.650Z,99.90
2023-04-27T02:27:43.559Z,99.90
2023-04-27T02:30:34.775Z,99.90
2023-04-27T02:33:23.990Z,99.90
2023-04-27T02:36:11.973Z,99.90
2023-04-27T02:39:01.748Z,99.90
2023-04-27T02:41:49.697Z,99.90
2023-04-27T02:44:38.020Z,99.90
2023-04-27T02:47:26.001Z,99.90
2023-04-27T02:50:15.195Z,99.90
2023-04-27T02:53:02.911Z,99.90
2023-04-27T02:55:53.469Z,99.90
2023-04-27T02:58:40.807Z,99.90
2023-04-27T03:01:28.712Z,99.90
2023-04-27T03:04:17.820Z,99.90
2023-04-27T03:07:10.122Z,99.90
2023-04-27T03:10:00.359Z,99.90
2023-04-27T03:12:52.296Z,99.90
2023-04-27T03:15:42.919Z,99.90
2023-04-27T03:18:38.256Z,99.90
2023-04-27T03:21:26.970Z,99.90
2023-04-27T03:24:15.885Z,99.90
2023-04-27T03:27:03.651Z,99.90
2023-04-27T03:30:01.874Z,99.90
2023-04-27T03:32:50.009Z,99.90
2023-04-27T03:35:37.534Z,99.90
2023-04-27T03:38:27.787Z,99.90
2023-04-27T03:41:18.604Z,99.90
2023-04-27T03:44:06.191Z,99.90
2023-04-27T03:46:57.140Z,99.90
2023-04-27T03:49:45.331Z,99.90
2023-04-27T03:52:33.321Z,99.90
2023-04-27T03:55:21.281Z,99.90
2023-04-27T03:58:11.496Z,99.90
2023-04-27T04:01:12.002Z,99.90
2023-04-27T04:04:00.332Z,99.90
2023-04-27T04:06:50.029Z,99.90
2023-04-27T04:09:37.578Z,99.90
2023-04-27T04:12:25.199Z,99.90
2023-04-27T04:15:14.347Z,99.90
2023-04-27T04:18:02.294Z,99.90
2023-04-27T04:20:50.050Z,99.90
2023-04-27T04:23:43.315Z,99.90
2023-04-27T04:26:34.799Z,99.90
2023-04-27T04:29:25.446Z,99.90
2023-04-27T04:32:17.977Z,99.90
2023-04-27T04:35:06.263Z,99.90
2023-04-27T04:37:55.163Z,99.90
2023-04-27T04:40:45.784Z,99.90
2023-04-27T04:43:33.937Z,99.90
2023-04-27T04:46:25.186Z,99.90
2023-04-27T04:49:14.355Z,99.90
2023-04-27T04:52:04.292Z,99.90
2023-04-27T04:54:53.923Z,99.90
2023-04-27T04:57:42.303Z,99.90
2023-04-27T05:00:30.894Z,99.90
2023-04-27T05:03:24.763Z,99.90
2023-04-27T05:06:14.343Z,99.90
2023-04-27T05:09:04.311Z,99.90
2023-04-27T05:11:52.179Z,99.90
2023-04-27T05:14:40.992Z,99.90
2023-04-27T05:17:29.458Z,99.90
2023-04-27T05:20:17.546Z,99.90
2023-04-27T05:23:06.828Z,99.90
2023-04-27T05:25:58.098Z,99.90
2023-04-27T05:28:49.663Z,99.90
2023-04-27T05:31:39.273Z,99.90
2023-04-27T05:34:27.867Z,99.90
2023-04-27T05:37:15.395Z,99.90
2023-04-27T05:40:05.459Z,99.90
2023-04-27T05:42:53.497Z,99.90
2023-04-27T05:45:41.379Z,99.90
2023-04-27T05:48:33.890Z,99.90
2023-04-27T05:51:23.263Z,99.90
2023-04-27T05:54:14.282Z,99.90
2023-04-27T05:57:04.141Z,99.90
2023-04-27T05:59:53.516Z,99.90
2023-04-27T06:02:42.285Z,99.90
2023-04-27T06:05:31.124Z,99.90
2023-04-27T06:08:18.950Z,99.90
2023-04-27T06:11:07.220Z,99.90
2023-04-27T06:13:56.417Z,99.90
2023-04-27T06:16:44.035Z,99.90
2023-04-27T06:19:33.985Z,99.90
2023-04-27T06:22:29.431Z,99.90
2023-04-27T06:25:17.177Z,99.90
2023-04-27T06:28:07.223Z,99.90
2023-04-27T06:30:58.897Z,99.90
2023-04-27T06:33:49.977Z,99.90
2023-04-27T06:36:52.504Z,99.90
2023-04-27T06:39:43.225Z,99.90
2023-04-27T06:42:30.746Z,99.90
2023-04-27T06:45:27.480Z,99.90
2023-04-27T06:48:25.758Z,99.90
2023-04-27T06:51:14.362Z,99.90
2023-04-27T06:54:07.666Z,99.90
2023-04-27T06:56:58.433Z,99.90
2023-04-27T06:59:48.047Z,99.90
2023-04-27T07:02:38.719Z,99.90
2023-04-27T07:05:27.999Z,99.90
2023-04-27T07:08:15.721Z,99.90
2023-04-27T07:11:03.983Z,99.90
2023-04-27T07:13:53.038Z,99.90
2023-04-27T07:16:40.913Z,99.90
2023-04-27T07:19:28.773Z,99.90
2023-04-27T07:22:25.964Z,99.90
2023-04-27T07:25:14.407Z,99.90
2023-04-27T07:28:01.999Z,99.90
2023-04-27T07:30:53.309Z,99.90
2023-04-27T07:33:43.409Z,99.90
2023-04-27T07:36:32.150Z,99.90
2023-04-27T07:39:21.342Z,99.90
2023-04-27T07:42:08.871Z,99.90
2023-04-27T07:44:57.345Z,99.90
2023-04-27T07:47:48.533Z,99.90
2023-04-27T07:50:36.696Z,99.90
2023-04-27T07:53:28.261Z,99.90
2023-04-27T07:56:18.021Z,99.90
2023-04-27T07:59:06.158Z,99.90
2023-04-27T08:02:06.988Z,99.90
2023-04-27T08:05:05.369Z,99.90
2023-04-27T08:07:54.598Z,99.90
2023-04-27T08:10:44.731Z,99.90
2023-04-27T08:13:35.086Z,99.90
2023-04-27T08:16:28.605Z,99.90
2023-04-27T08:19:21.260Z,99.90
2023-04-27T08:22:09.340Z,99.90
2023-04-27T08:25:03.881Z,99.90
2023-04-27T08:27:52.714Z,99.90
2023-04-27T08:30:42.988Z,99.90
2023-04-27T08:33:31.343Z,99.90
2023-04-27T08:36:19.149Z,99.90
2023-04-27T08:39:08.030Z,99.90
2023-04-27T08:41:56.697Z,99.90
2023-04-27T08:44:45.415Z,99.90
2023-04-27T08:47:43.341Z,99.90
2023-04-27T08:50:32.827Z,99.90
2023-04-27T08:53:24.847Z,99.90
2023-04-27T08:56:15.386Z,99.90
2023-04-27T08:59:05.357Z,99.90
2023-04-27T09:01:54.495Z,99.90
2023-04-27T09:04:43.959Z,99.90
2023-04-27T09:07:32.238Z,99.90
2023-04-27T09:10:19.921Z,99.90
2023-04-27T09:13:10.127Z,99.90
2023-04-27T09:16:01.799Z,99.90
2023-04-27T09:18:50.741Z,99.90
2023-04-27T09:21:40.810Z,99.90
2023-04-27T09:24:28.531Z,99.90
2023-04-27T09:27:23.385Z,99.90
2023-04-27T09:30:15.335Z,99.90
2023-04-27T09:33:04.069Z,99.90
2023-04-27T09:35:52.474Z,99.90
2023-04-27T09:38:41.674Z,99.90
2023-04-27T09:41:30.872Z,99.90
2023-04-27T09:44:20.229Z,99.90
2023-04-27T09:47:12.131Z,99.90
2023-04-27T09:50:00.948Z,99.90
2023-04-27T09:52:48.987Z,99.90
2023-04-27T09:55:41.852Z,99.90
2023-04-27T09:58:45.348Z,99.90
2023-04-27T10:01:39.960Z,99.90
2023-04-27T10:04:38.027Z,99.90
2023-04-27T10:07:27.789Z,99.90
2023-04-27T10:10:19.537Z,99.90
2023-04-27T10:13:08.959Z,99.90
2023-04-27T10:15:58.174Z,99.90
2023-04-27T10:18:52.360Z,99.90
2023-04-27T10:21:41.532Z,99.90
2023-04-27T10:24:33.914Z,99.90
2023-04-27T10:27:22.940Z,99.90
2023-04-27T10:30:13.383Z,99.90
2023-04-27T10:33:09.805Z,99.90
2023-04-27T10:36:01.706Z,99.90
2023-04-27T10:38:57.506Z,99.90
2023-04-27T10:41:54.436Z,99.90
2023-04-27T10:44:42.285Z,99.90
2023-04-27T10:47:39.674Z,99.90
2023-04-27T10:50:27.689Z,99.90
2023-04-27T10:53:15.486Z,99.90
2023-04-27T10:56:07.228Z,99.90
2023-04-27T10:59:03.498Z,99.90
2023-04-27T11:01:54.170Z,99.90
2023-04-27T11:04:43.368Z,99.90
2023-04-27T11:07:30.693Z,99.90
2023-04-27T11:10:24.645Z,99.90
2023-04-27T11:13:13.659Z,99.90
2023-04-27T11:16:07.083Z,99.90
2023-04-27T11:18:59.650Z,99.90
2023-04-27T11:21:49.434Z,99.90
2023-04-27T11:24:37.768Z,99.90
2023-04-27T11:27:27.040Z,99.90
2023-04-27T11:30:22.335Z,99.90
2023-04-27T11:33:11.022Z,99.70
2023-04-27T11:35:58.313Z,97.30
2023-04-27T11:38:50.619Z,97.80
2023-04-27T11:41:45.949Z,97.10
2023-04-27T11:44:37.715Z,96.10
2023-04-27T11:47:29.508Z,95.40
2023-04-27T11:50:17.467Z,94.90
2023-04-27T11:53:05.393Z,95.00
2023-04-27T11:55:59.459Z,96.40
2023-04-27T11:58:49.617Z,93.60
2023-04-27T12:01:38.580Z,92.40
2023-04-27T12:04:31.105Z,94.30
2023-04-27T12:07:23.232Z,95.80
2023-04-27T12:10:14.531Z,93.90
2023-04-27T12:13:05.558Z,93.50
2023-04-27T12:15:57.319Z,94.00
2023-04-27T12:18:48.883Z,93.50
2023-04-27T12:21:38.566Z,92.50
2023-04-27T12:24:27.320Z,92.60
2023-04-27T12:27:19.621Z,91.60
2023-04-27T12:30:16.524Z,91.90
2023-04-27T12:33:11.516Z,92.90
2023-04-27T12:36:04.915Z,92.00
2023-04-27T12:38:56.233Z,92.00
2023-04-27T12:41:51.026Z,91.40
2023-04-27T12:44:46.759Z,91.90
2023-04-27T12:47:54.560Z,91.40
2023-04-27T12:50:54.489Z,87.80
2023-04-27T12:53:50.774Z,87.90
2023-04-27T12:56:47.447Z,90.80
2023-04-27T12:59:37.674Z,90.30
2023-04-27T13:02:25.686Z,86.60
2023-04-27T13:05:15.945Z,85.50
2023-04-27T13:08:11.465Z,87.30
2023-04-27T13:11:01.428Z,84.50
2023-04-27T13:13:49.830Z,89.10
2023-04-27T13:16:41.449Z,86.40
2023-04-27T13:19:29.822Z,79.70
2023-04-27T13:22:19.324Z,81.50
2023-04-27T13:25:07.613Z,82.30
2023-04-27T13:27:58.166Z,82.70
2023-04-27T13:30:46.250Z,80.60
2023-04-27T13:33:41.718Z,84.70
2023-04-27T13:36:29.574Z,84.30
2023-04-27T13:39:23.747Z,85.20
2023-04-27T13:42:14.176Z,88.40
2023-04-27T13:45:02.501Z,83.60
2023-04-27T13:47:53.834Z,84.30
2023-04-27T13:50:41.994Z,83.50
2023-04-27T13:53:29.902Z,82.60
2023-04-27T13:56:19.247Z,83.50
2023-04-27T13:59:10.678Z,82.80
2023-04-27T14:01:58.766Z,83.70
2023-04-27T14:04:46.415Z,84.00
2023-04-27T14:07:38.502Z,82.20
2023-04-27T14:10:31.521Z,85.60
2023-04-27T14:13:22.794Z,82.00
2023-04-27T14:16:15.692Z,81.70
2023-04-27T14:19:06.212Z,81.60
2023-04-27T14:21:54.290Z,81.90
2023-04-27T14:24:47.199Z,84.20
2023-04-27T14:27:35.707Z,86.50
2023-04-27T14:30:24.640Z,87.50
2023-04-27T14:33:13.900Z,85.50
2023-04-27T14:36:01.633Z,86.90
2023-04-27T14:38:48.927Z,89.80
2023-04-27T14:41:38.844Z,86.10
2023-04-27T14:44:31.430Z,88.70
2023-04-27T14:47:20.566Z,90.70
2023-04-27T14:50:08.627Z,88.30
2023-04-27T14:52:58.952Z,87.20
2023-04-27T14:55:49.754Z,91.10
2023-04-27T14:58:40.217Z,90.50
2023-04-27T15:01:29.367Z,87.80
2023-04-27T15:04:18.841Z,88.40
2023-04-27T15:07:07.162Z,87.10
2023-04-27T15:09:55.873Z,87.80
2023-04-27T15:12:44.125Z,87.60
2023-04-27T15:15:35.047Z,89.00
2023-04-27T15:18:26.127Z,90.70
2023-04-27T15:21:18.645Z,89.70
2023-04-27T15:24:07.779Z,90.30
2023-04-27T15:26:55.562Z,91.00
2023-04-27T15:29:43.880Z,91.70
2023-04-27T15:32:32.448Z,91.70
2023-04-27T15:35:19.771Z,93.00
2023-04-27T15:38:11.287Z,91.20
2023-04-27T15:40:59.459Z,92.10
2023-04-27T15:43:48.214Z,91.30
2023-04-27T15:46:36.679Z,92.00
2023-04-27T15:49:25.266Z,91.60
2023-04-27T15:52:14.905Z,91.60
2023-04-27T15:55:05.584Z,93.20
2023-04-27T15:57:56.363Z,91.30
2023-04-27T16:00:47.551Z,91.10
2023-04-27T16:03:35.051Z,92.00
2023-04-27T16:06:23.323Z,92.30
2023-04-27T16:09:12.718Z,93.10
2023-04-27T16:12:04.047Z,93.10
2023-04-27T16:14:52.082Z,92.80
2023-04-27T16:17:39.934Z,92.40
2023-04-27T16:20:29.125Z,94.70
2023-04-27T16:23:20.234Z,93.10
2023-04-27T16:26:11.483Z,93.60
2023-04-27T16:29:01.842Z,96.30
2023-04-27T16:31:53.901Z,94.30
2023-04-27T16:34:41.636Z,94.30
2023-04-27T16:37:30.146Z,94.40
2023-04-27T16:40:18.357Z,94.30
2023-04-27T16:43:09.161Z,95.60
2023-04-27T16:46:00.285Z,95.50
2023-04-27T16:48:48.750Z,95.90
2023-04-27T16:51:39.770Z,96.20
2023-04-27T16:54:27.783Z,96.80
2023-04-27T16:57:15.643Z,96.90
2023-04-27T17:00:09.374Z,96.20
2023-04-27T17:03:05.084Z,96.40
2023-04-27T17:05:53.784Z,96.80
2023-04-27T17:08:42.113Z,96.60
2023-04-27T17:11:30.082Z,97.60
2023-04-27T17:14:20.619Z,98.00
2023-04-27T17:17:10.585Z,98.70
2023-04-27T17:20:05.616Z,98.10
2023-04-27T17:22:53.678Z,98.90
2023-04-27T17:26:13.046Z,99.00
2023-04-27T17:29:04.043Z,99.90
2023-04-27T17:31:51.833Z,99.30
2023-04-27T17:34:42.842Z,99.90
2023-04-27T17:37:33.946Z,99.90
2023-04-27T17:40:32.793Z,99.90
2023-04-27T17:43:22.431Z,99.90
2023-04-27T17:46:10.365Z,99.90
2023-04-27T17:48:57.955Z,99.90
2023-04-27T17:51:46.878Z,99.90
2023-04-27T17:54:37.345Z,99.90
2023-04-27T17:57:29.130Z,99.90
2023-04-27T18:00:19.624Z,99.90
2023-04-27T18:03:07.354Z,99.90
2023-04-27T18:05:55.667Z,99.90
2023-04-27T18:08:46.937Z,99.90
2023-04-27T18:11:36.549Z,99.90
2023-04-27T18:14:30.227Z,99.90
2023-04-27T18:17:19.127Z,99.90
2023-04-27T18:20:10.177Z,99.90
2023-04-27T18:22:58.287Z,99.90
2023-04-27T18:25:46.048Z,99.90
2023-04-27T18:28:35.104Z,99.90
2023-04-27T18:31:25.622Z,99.90
2023-04-27T18:34:14.533Z,99.90
2023-04-27T18:37:02.401Z,99.90
2023-04-27T18:39:52.898Z,99.90
2023-04-27T18:42:43.404Z,99.90
2023-04-27T18:45:33.721Z,99.90
2023-04-27T18:48:21.530Z,99.90
2023-04-27T18:51:08.885Z,99.90
2023-04-27T18:53:56.597Z,99.90
2023-04-27T18:56:44.576Z,99.90
2023-04-27T18:59:32.173Z,99.90
2023-04-27T19:02:26.814Z,99.90
2023-04-27T19:05:19.876Z,99.90
2023-04-27T19:08:07.856Z,99.90
2023-04-27T19:10:58.570Z,99.90
2023-04-27T19:13:46.742Z,99.90
2023-04-27T19:16:36.293Z,99.90
2023-04-27T19:19:26.736Z,99.90
2023-04-27T19:22:14.420Z,99.90
2023-04-27T19:25:02.045Z,99.90
2023-04-27T19:27:55.475Z,99.90
2023-04-27T19:30:42.982Z,99.90
2023-04-27T19:33:33.114Z,99.90
2023-04-27T19:36:45.300Z,99.90
2023-04-27T19:39:44.100Z,99.90
2023-04-27T19:42:31.919Z,99.90
2023-04-27T19:45:24.299Z,99.90
2023-04-27T19:48:31.887Z,99.90
2023-04-27T19:51:23.765Z,99.90
2023-04-27T19:54:11.888Z,99.90
2023-04-27T19:57:00.337Z,99.90
2023-04-27T19:59:48.044Z,99.90
2023-04-27T20:02:36.474Z,99.90
2023-04-27T20:05:25.746Z,99.90
2023-04-27T20:08:15.432Z,99.90
2023-04-27T20:11:10.233Z,99.90
2023-04-27T20:13:58.106Z,99.90
2023-04-27T20:16:47.066Z,99.90
2023-04-27T20:19:36.103Z,99.90
2023-04-27T20:22:24.046Z,99.90
2023-04-27T20:25:15.988Z,99.90
2023-04-27T20:28:06.517Z,99.90
2023-04-27T20:30:55.301Z,99.90
2023-04-27T20:33:44.902Z,99.90
2023-04-27T20:36:35.054Z,99.90
2023-04-27T20:39:24.190Z,99.90
2023-04-27T20:42:24.016Z,99.90
2023-04-27T20:45:16.500Z,99.90
2023-04-27T20:48:08.023Z,99.90
2023-04-27T20:50:56.266Z,99.90
2023-04-27T20:53:43.579Z,99.90
2023-04-27T20:56:32.994Z,99.90
2023-04-27T20:59:24.583Z,99.90
2023-04-27T21:02:13.962Z,99.90
2023-04-27T21:05:06.500Z,99.90
2023-04-27T21:07:55.393Z,99.90
2023-04-27T21:10:44.228Z,99.90
2023-04-27T21:13:32.127Z,99.90
2023-04-27T21:16:22.310Z,99.90
2023-04-27T21:19:14.734Z,99.90
2023-04-27T21:22:08.487Z,99.90
2023-04-27T21:24:56.099Z,99.90
2023-04-27T21:27:44.567Z,99.90
2023-04-27T21:30:34.233Z,99.90
2023-04-27T21:33:23.500Z,99.90
2023-04-27T21:36:11.426Z,99.90
2023-04-27T21:38:59.887Z,99.90
2023-04-27T21:41:50.132Z,99.90
2023-04-27T21:44:38.390Z,99.90
2023-04-27T21:47:28.473Z,99.90
2023-04-27T21:50:18.382Z,99.90
2023-04-27T21:53:06.015Z,99.90
2023-04-27T21:55:53.352Z,99.90
2023-04-27T21:58:40.897Z,99.90
2023-04-27T22:01:29.014Z,99.90
2023-04-27T22:04:17.142Z,99.90
2023-04-27T22:07:09.549Z,99.90
2023-04-27T22:09:57.698Z,99.90
2023-04-27T22:12:48.107Z,99.90
2023-04-27T22:15:36.032Z,99.90
2023-04-27T22:18:30.150Z,99.90
2023-04-27T22:21:18.609Z,99.90
2023-04-27T22:24:10.620Z,99.90
2023-04-27T22:26:58.728Z,99.90
2023-04-27T22:29:46.329Z,99.90
2023-04-27T22:32:38.879Z,99.90
2023-04-27T22:35:28.193Z,99.90
2023-04-27T22:38:21.437Z,99.90
2023-04-27T22:41:11.925Z,99.90
2023-04-27T22:43:59.436Z,99.90
2023-04-27T22:46:46.920Z,99.90
2023-04-27T22:49:37.047Z,99.90
2023-04-27T22:52:28.388Z,99.90
2023-04-27T22:55:18.608Z,99.90
2023-04-27T22:58:08.089Z,99.90
2023-04-27T23:00:55.662Z,99.90
2023-04-27T23:03:44.222Z,99.90
2023-04-27T23:06:32.091Z,99.90
2023-04-27T23:09:19.467Z,99.90
2023-04-27T23:12:08.120Z,99.90
2023-04-27T23:14:56.845Z,99.90
2023-04-27T23:17:44.768Z,99.90
2023-04-27T23:20:33.143Z,99.90
2023-04-27T23:23:20.945Z,99.90
2023-04-27T23:26:13.234Z,99.90
2023-04-27T23:29:01.684Z,99.90
2023-04-27T23:31:50.928Z,99.90
2023-04-27T23:34:40.997Z,99.90
2023-04-27T23:37:31.937Z,99.90
2023-04-27T23:40:19.548Z,99.90
2023-04-27T23:43:07.782Z,99.90
2023-04-27T23:45:55.951Z,99.90
2023-04-27T23:48:45.178Z,99.90
2023-04-27T23:51:32.913Z,99.90
2023-04-27T23:54:21.285Z,99.90
2023-04-27T23:57:10.707Z,99.90
